<?xml version="1.0" encoding="utf-8"?>
<gpx xmlns:xsi="http://www.w3.org/2001/XMLSchema-instance" xmlns:xsd="http://www.w3.org/2001/XMLSchema" version="1.1" creator="Shapelink.com" xmlns="http://www.topografix.com/GPX/1/1" xmlns:gpxtpx="http://www.garmin.com/xmlschemas/TrackPointExtension/v1">
  <metadata>
    <name>Gåing 1.01 km, 2012-03-11</name>
    <desc></desc>
    <author><name>Mikael Blom</name></author> 
    <time>2012-03-11T13:15:52Z</time>
  </metadata>
  <trk>
    <name>Gåing 1.01 km, 2012-03-11</name>
    <trkseg>
      <trkpt lat="59.9824516" lon="17.7381466">
        <ele>51.5679</ele>
        <time>2012-03-11T13:15:52Z</time>
      </trkpt>
      <trkpt lat="59.9823223" lon="17.7381703">
        <ele>51.5679</ele>
        <time>2012-03-11T13:15:59Z</time>
      </trkpt>
      <trkpt lat="59.9822432" lon="17.7382166">
        <ele>52.0486</ele>
        <time>2012-03-11T13:16:04Z</time>
      </trkpt>
      <trkpt lat="59.9822234" lon="17.7382176">
        <ele>53.0098</ele>
        <time>2012-03-11T13:16:05Z</time>
      </trkpt>
      <trkpt lat="59.9821367" lon="17.73822">
        <ele>56.3745</ele>
        <time>2012-03-11T13:16:10Z</time>
      </trkpt>
      <trkpt lat="59.9820619" lon="17.7382742">
        <ele>59.7391</ele>
        <time>2012-03-11T13:16:14Z</time>
      </trkpt>
      <trkpt lat="59.9819735" lon="17.7383457">
        <ele>61.6617</ele>
        <time>2012-03-11T13:16:20Z</time>
      </trkpt>
      <trkpt lat="59.9818856" lon="17.7383987">
        <ele>63.1036</ele>
        <time>2012-03-11T13:16:25Z</time>
      </trkpt>
      <trkpt lat="59.981817" lon="17.7384504">
        <ele>64.0651</ele>
        <time>2012-03-11T13:16:29Z</time>
      </trkpt>
      <trkpt lat="59.9817239" lon="17.7384935">
        <ele>61.6617</ele>
        <time>2012-03-11T13:16:37Z</time>
      </trkpt>
      <trkpt lat="59.9816855" lon="17.7385161">
        <ele>59.7391</ele>
        <time>2012-03-11T13:16:40Z</time>
      </trkpt>
      <trkpt lat="59.9815888" lon="17.7385211">
        <ele>59.7391</ele>
        <time>2012-03-11T13:16:47Z</time>
      </trkpt>
      <trkpt lat="59.9815111" lon="17.7385463">
        <ele>54.9324</ele>
        <time>2012-03-11T13:16:53Z</time>
      </trkpt>
      <trkpt lat="59.9814324" lon="17.7385918">
        <ele>52.5292</ele>
        <time>2012-03-11T13:16:58Z</time>
      </trkpt>
      <trkpt lat="59.9813539" lon="17.7386187">
        <ele>51.5679</ele>
        <time>2012-03-11T13:17:03Z</time>
      </trkpt>
      <trkpt lat="59.9812903" lon="17.7386492">
        <ele>50.126</ele>
        <time>2012-03-11T13:17:07Z</time>
      </trkpt>
      <trkpt lat="59.9812084" lon="17.7386602">
        <ele>45.7999</ele>
        <time>2012-03-11T13:17:13Z</time>
      </trkpt>
      <trkpt lat="59.9811411" lon="17.7386919">
        <ele>49.1646</ele>
        <time>2012-03-11T13:17:17Z</time>
      </trkpt>
      <trkpt lat="59.9810491" lon="17.7386965">
        <ele>49.6453</ele>
        <time>2012-03-11T13:17:23Z</time>
      </trkpt>
      <trkpt lat="59.9809807" lon="17.7387119">
        <ele>49.6453</ele>
        <time>2012-03-11T13:17:27Z</time>
      </trkpt>
      <trkpt lat="59.9809639" lon="17.7387198">
        <ele>49.6453</ele>
        <time>2012-03-11T13:17:28Z</time>
      </trkpt>
      <trkpt lat="59.9808748" lon="17.7387602">
        <ele>49.6453</ele>
        <time>2012-03-11T13:17:33Z</time>
      </trkpt>
      <trkpt lat="59.9807843" lon="17.7387791">
        <ele>50.126</ele>
        <time>2012-03-11T13:17:38Z</time>
      </trkpt>
      <trkpt lat="59.9806953" lon="17.7388057">
        <ele>52.5292</ele>
        <time>2012-03-11T13:17:43Z</time>
      </trkpt>
      <trkpt lat="59.9806186" lon="17.738871">
        <ele>54.4518</ele>
        <time>2012-03-11T13:17:47Z</time>
      </trkpt>
      <trkpt lat="59.9805089" lon="17.7388871">
        <ele>53.4905</ele>
        <time>2012-03-11T13:17:54Z</time>
      </trkpt>
      <trkpt lat="59.9804176" lon="17.7389119">
        <ele>53.4905</ele>
        <time>2012-03-11T13:18:00Z</time>
      </trkpt>
      <trkpt lat="59.9803495" lon="17.7389036">
        <ele>47.7225</ele>
        <time>2012-03-11T13:18:07Z</time>
      </trkpt>
      <trkpt lat="59.9803368" lon="17.7389037">
        <ele>47.2418</ele>
        <time>2012-03-11T13:18:08Z</time>
      </trkpt>
      <trkpt lat="59.9802466" lon="17.7389031">
        <ele>47.2418</ele>
        <time>2012-03-11T13:18:14Z</time>
      </trkpt>
      <trkpt lat="59.980204" lon="17.7388859">
        <ele>44.358</ele>
        <time>2012-03-11T13:18:18Z</time>
      </trkpt>
      <trkpt lat="59.9801368" lon="17.7388601">
        <ele>43.3966</ele>
        <time>2012-03-11T13:18:23Z</time>
      </trkpt>
      <trkpt lat="59.980124" lon="17.738855">
        <ele>42.916</ele>
        <time>2012-03-11T13:18:24Z</time>
      </trkpt>
      <trkpt lat="59.9800202" lon="17.738857">
        <ele>41.474</ele>
        <time>2012-03-11T13:18:31Z</time>
      </trkpt>
      <trkpt lat="59.9799353" lon="17.7388147">
        <ele>40.5128</ele>
        <time>2012-03-11T13:18:37Z</time>
      </trkpt>
      <trkpt lat="59.9798631" lon="17.7388364">
        <ele>39.0707</ele>
        <time>2012-03-11T13:18:42Z</time>
      </trkpt>
      <trkpt lat="59.979739" lon="17.7388601">
        <ele>39.0707</ele>
        <time>2012-03-11T13:18:50Z</time>
      </trkpt>
      <trkpt lat="59.9796521" lon="17.7389263">
        <ele>38.1094</ele>
        <time>2012-03-11T13:18:56Z</time>
      </trkpt>
      <trkpt lat="59.9795888" lon="17.738949">
        <ele>37.1481</ele>
        <time>2012-03-11T13:19:01Z</time>
      </trkpt>
      <trkpt lat="59.9794956" lon="17.7390123">
        <ele>36.6675</ele>
        <time>2012-03-11T13:19:07Z</time>
      </trkpt>
      <trkpt lat="59.9793879" lon="17.7390813">
        <ele>36.6675</ele>
        <time>2012-03-11T13:19:14Z</time>
      </trkpt>
      <trkpt lat="59.979328" lon="17.7391299">
        <ele>37.1481</ele>
        <time>2012-03-11T13:19:18Z</time>
      </trkpt>
      <trkpt lat="59.9793054" lon="17.7391615">
        <ele>34.7449</ele>
        <time>2012-03-11T13:19:23Z</time>
      </trkpt>
      <trkpt lat="59.9792163" lon="17.7391718">
        <ele>32.8223</ele>
        <time>2012-03-11T13:19:30Z</time>
      </trkpt>
      <trkpt lat="59.9791584" lon="17.7392025">
        <ele>32.8223</ele>
        <time>2012-03-11T13:19:34Z</time>
      </trkpt>
      <trkpt lat="59.9791149" lon="17.7392226">
        <ele>31.3801</ele>
        <time>2012-03-11T13:19:37Z</time>
      </trkpt>
      <trkpt lat="59.9789867" lon="17.7392892">
        <ele>33.3029</ele>
        <time>2012-03-11T13:19:44Z</time>
      </trkpt>
      <trkpt lat="59.9789002" lon="17.739337">
        <ele>33.3029</ele>
        <time>2012-03-11T13:19:50Z</time>
      </trkpt>
      <trkpt lat="59.9787884" lon="17.739381">
        <ele>38.5901</ele>
        <time>2012-03-11T13:19:56Z</time>
      </trkpt>
      <trkpt lat="59.9786852" lon="17.7394">
        <ele>44.358</ele>
        <time>2012-03-11T13:20:01Z</time>
      </trkpt>
      <trkpt lat="59.9785952" lon="17.7394098">
        <ele>45.3192</ele>
        <time>2012-03-11T13:20:07Z</time>
      </trkpt>
      <trkpt lat="59.9785159" lon="17.7394123">
        <ele>44.358</ele>
        <time>2012-03-11T13:20:13Z</time>
      </trkpt>
      <trkpt lat="59.9785045" lon="17.7394015">
        <ele>43.8773</ele>
        <time>2012-03-11T13:20:14Z</time>
      </trkpt>
      <trkpt lat="59.9783982" lon="17.7394018">
        <ele>43.8773</ele>
        <time>2012-03-11T13:20:21Z</time>
      </trkpt>
      <trkpt lat="59.9783804" lon="17.7394052">
        <ele>43.8773</ele>
        <time>2012-03-11T13:20:22Z</time>
      </trkpt>
      <trkpt lat="59.9783549" lon="17.7393984">
        <ele>42.916</ele>
        <time>2012-03-11T13:20:24Z</time>
      </trkpt>
      <trkpt lat="59.9782747" lon="17.7393492">
        <ele>40.9934</ele>
        <time>2012-03-11T13:20:30Z</time>
      </trkpt>
      <trkpt lat="59.9781953" lon="17.7393373">
        <ele>42.4354</ele>
        <time>2012-03-11T13:20:35Z</time>
      </trkpt>
      <trkpt lat="59.9781218" lon="17.7393164">
        <ele>40.5128</ele>
        <time>2012-03-11T13:20:40Z</time>
      </trkpt>
      <trkpt lat="59.9780327" lon="17.7393106">
        <ele>42.4354</ele>
        <time>2012-03-11T13:20:45Z</time>
      </trkpt>
      <trkpt lat="59.9779011" lon="17.7392637">
        <ele>43.3966</ele>
        <time>2012-03-11T13:20:53Z</time>
      </trkpt>
      <trkpt lat="59.9777919" lon="17.7392056">
        <ele>41.474</ele>
        <time>2012-03-11T13:21:01Z</time>
      </trkpt>
      <trkpt lat="59.9777097" lon="17.7391791">
        <ele>39.5513</ele>
        <time>2012-03-11T13:21:07Z</time>
      </trkpt>
      <trkpt lat="59.977583" lon="17.7391688">
        <ele>39.0707</ele>
        <time>2012-03-11T13:21:15Z</time>
      </trkpt>
      <trkpt lat="59.9774847" lon="17.7392135">
        <ele>40.0321</ele>
        <time>2012-03-11T13:21:20Z</time>
      </trkpt>
      <trkpt lat="59.9773509" lon="17.7392625">
        <ele>40.0321</ele>
        <time>2012-03-11T13:21:28Z</time>
      </trkpt>
      <trkpt lat="59.977309" lon="17.739273">
        <ele>39.5513</ele>
        <time>2012-03-11T13:21:31Z</time>
      </trkpt>
      <trkpt lat="59.9772451" lon="17.7392911">
        <ele>37.6287</ele>
        <time>2012-03-11T13:21:36Z</time>
      </trkpt>
      <trkpt lat="59.9772131" lon="17.7392923">
        <ele>35.7061</ele>
        <time>2012-03-11T13:21:39Z</time>
      </trkpt>
      <trkpt lat="59.9771153" lon="17.7393062">
        <ele>31.8607</ele>
        <time>2012-03-11T13:21:47Z</time>
      </trkpt>
      <trkpt lat="59.9771039" lon="17.7393071">
        <ele>31.8607</ele>
        <time>2012-03-11T13:21:48Z</time>
      </trkpt>
      <trkpt lat="59.9770387" lon="17.7393562">
        <ele>32.8223</ele>
        <time>2012-03-11T13:21:52Z</time>
      </trkpt>
      <trkpt lat="59.9769353" lon="17.7394092">
        <ele>33.7834</ele>
        <time>2012-03-11T13:21:59Z</time>
      </trkpt>
      <trkpt lat="59.976923" lon="17.73941">
        <ele>33.7834</ele>
        <time>2012-03-11T13:22:00Z</time>
      </trkpt>
      <trkpt lat="59.9767873" lon="17.7395081">
        <ele>38.1094</ele>
        <time>2012-03-11T13:22:08Z</time>
      </trkpt>
      <trkpt lat="59.9766848" lon="17.739565">
        <ele>40.5128</ele>
        <time>2012-03-11T13:22:14Z</time>
      </trkpt>
      <trkpt lat="59.976592" lon="17.7396111">
        <ele>40.0321</ele>
        <time>2012-03-11T13:22:20Z</time>
      </trkpt>
      <trkpt lat="59.97655" lon="17.7396412">
        <ele>38.5901</ele>
        <time>2012-03-11T13:22:23Z</time>
      </trkpt>
      <trkpt lat="59.976489" lon="17.7396564">
        <ele>34.7449</ele>
        <time>2012-03-11T13:22:29Z</time>
      </trkpt>
      <trkpt lat="59.9764629" lon="17.7396963">
        <ele>31.3801</ele>
        <time>2012-03-11T13:22:33Z</time>
      </trkpt>
      <trkpt lat="59.9764506" lon="17.7397107">
        <ele>31.3801</ele>
        <time>2012-03-11T13:22:34Z</time>
      </trkpt>
      <trkpt lat="59.9763952" lon="17.7397859">
        <ele>30.8995</ele>
        <time>2012-03-11T13:22:39Z</time>
      </trkpt>
      <trkpt lat="59.9763424" lon="17.7398942">
        <ele>29.4575</ele>
        <time>2012-03-11T13:22:45Z</time>
      </trkpt>
      <trkpt lat="59.9763067" lon="17.7399127">
        <ele>27.5349</ele>
        <time>2012-03-11T13:22:50Z</time>
      </trkpt>
      <trkpt lat="59.9763551" lon="17.739761">
        <ele>23.209</ele>
        <time>2012-03-11T13:22:54Z</time>
      </trkpt>
      <trkpt lat="59.9764432" lon="17.7395743">
        <ele>21.2864</ele>
        <time>2012-03-11T13:23:02Z</time>
      </trkpt>
      <trkpt lat="59.9765696" lon="17.7394237">
        <ele>20.8057</ele>
        <time>2012-03-11T13:23:12Z</time>
      </trkpt>
      <trkpt lat="59.9766553" lon="17.7393574">
        <ele>21.2864</ele>
        <time>2012-03-11T13:23:18Z</time>
      </trkpt>
      <trkpt lat="59.9767485" lon="17.7393283">
        <ele>21.767</ele>
        <time>2012-03-11T13:23:25Z</time>
      </trkpt>
      <trkpt lat="59.9768748" lon="17.7392994">
        <ele>22.2476</ele>
        <time>2012-03-11T13:23:33Z</time>
      </trkpt>
      <trkpt lat="59.9769617" lon="17.7392575">
        <ele>21.767</ele>
        <time>2012-03-11T13:23:39Z</time>
      </trkpt>
      <trkpt lat="59.9770693" lon="17.7392133">
        <ele>21.767</ele>
        <time>2012-03-11T13:23:46Z</time>
      </trkpt>
      <trkpt lat="59.9771785" lon="17.7391488">
        <ele>22.2476</ele>
        <time>2012-03-11T13:23:54Z</time>
      </trkpt>
      <trkpt lat="59.9772752" lon="17.7390767">
        <ele>23.209</ele>
        <time>2012-03-11T13:24:01Z</time>
      </trkpt>
      <trkpt lat="59.9774152" lon="17.7390238">
        <ele>24.1703</ele>
        <time>2012-03-11T13:24:11Z</time>
      </trkpt>
      <trkpt lat="59.9775447" lon="17.7389762">
        <ele>25.6123</ele>
        <time>2012-03-11T13:24:20Z</time>
      </trkpt>
      <trkpt lat="59.9776408" lon="17.7389697">
        <ele>27.5349</ele>
        <time>2012-03-11T13:24:27Z</time>
      </trkpt>
      <trkpt lat="59.9777346" lon="17.7389896">
        <ele>28.4962</ele>
        <time>2012-03-11T13:24:35Z</time>
      </trkpt>
      <trkpt lat="59.9777876" lon="17.7390151">
        <ele>28.4962</ele>
        <time>2012-03-11T13:24:40Z</time>
      </trkpt>
      <trkpt lat="59.9778261" lon="17.7390398">
        <ele>28.0155</ele>
        <time>2012-03-11T13:24:44Z</time>
      </trkpt>
      <trkpt lat="59.9779294" lon="17.7390969">
        <ele>27.5349</ele>
        <time>2012-03-11T13:24:51Z</time>
      </trkpt>
      <trkpt lat="59.9779841" lon="17.7391343">
        <ele>26.5736</ele>
        <time>2012-03-11T13:24:56Z</time>
      </trkpt>
      <trkpt lat="59.9780273" lon="17.7391672">
        <ele>26.0929</ele>
        <time>2012-03-11T13:24:59Z</time>
      </trkpt>
      <trkpt lat="59.9781004" lon="17.7391926">
        <ele>27.0543</ele>
        <time>2012-03-11T13:25:03Z</time>
      </trkpt>
      <trkpt lat="59.9782589" lon="17.7392491">
        <ele>26.5736</ele>
        <time>2012-03-11T13:25:14Z</time>
      </trkpt>
      <trkpt lat="59.9783203" lon="17.7392647">
        <ele>26.5736</ele>
        <time>2012-03-11T13:25:18Z</time>
      </trkpt>
      <trkpt lat="59.9784238" lon="17.739273">
        <ele>28.0155</ele>
        <time>2012-03-11T13:25:24Z</time>
      </trkpt>
      <trkpt lat="59.9785593" lon="17.7392987">
        <ele>27.5349</ele>
        <time>2012-03-11T13:25:33Z</time>
      </trkpt>
      <trkpt lat="59.9786831" lon="17.7393249">
        <ele>28.0155</ele>
        <time>2012-03-11T13:25:41Z</time>
      </trkpt>
      <trkpt lat="59.9787981" lon="17.7393857">
        <ele>27.5349</ele>
        <time>2012-03-11T13:25:49Z</time>
      </trkpt>
      <trkpt lat="59.9788095" lon="17.7393927">
        <ele>27.0543</ele>
        <time>2012-03-11T13:25:50Z</time>
      </trkpt>
    </trkseg>
  </trk>
</gpx>